createdAt,value
2019-05-14T00:00:01.548Z,2.30
2019-05-14T00:02:31.398Z,2.30
2019-05-14T00:04:58.667Z,2.23
2019-05-14T00:07:26.316Z,1.63
2019-05-14T00:09:54.125Z,1.63
2019-05-14T00:12:22.392Z,1.30
2019-05-14T00:14:51.598Z,1.20
2019-05-14T00:17:21.318Z,1.10
2019-05-14T00:20:02.722Z,1.20
2019-05-14T00:22:18.509Z,1.30
2019-05-14T00:24:46.334Z,1.40
2019-05-14T00:27:13.975Z,0.90
2019-05-14T08:13:42.911Z,1.10
2019-05-14T08:16:29.953Z,1.00
2019-05-14T08:19:26.517Z,0.80
2019-05-14T08:22:22.709Z,0.80
2019-05-14T08:25:35.457Z,0.90
2019-05-14T08:28:50.185Z,0.50
2019-05-14T08:31:38.318Z,0.80
2019-05-14T08:34:47.983Z,0.90
2019-05-14T08:37:30.335Z,0.63
2019-05-14T08:40:38.327Z,0.80
2019-05-14T08:43:39.757Z,0.97
2019-05-14T08:46:28.361Z,0.90
2019-05-14T08:49:46.687Z,0.80
2019-05-14T08:56:00.275Z,0.90
2019-05-14T08:59:39.614Z,0.67
2019-05-14T12:48:29.493Z,0.97
2019-05-14T12:50:56.369Z,0.87
2019-05-14T12:53:49.698Z,0.67
2019-05-14T12:56:44.272Z,0.67
2019-05-14T12:59:12.071Z,0.80
2019-05-14T13:01:39.842Z,0.80
2019-05-14T13:04:08.459Z,0.77
2019-05-14T13:06:39.901Z,0.80
2019-05-14T13:09:05.938Z,0.80
2019-05-14T13:11:33.729Z,0.90
2019-05-14T13:14:01.386Z,0.90
2019-05-14T13:16:29.523Z,0.80
2019-05-14T13:18:59.695Z,0.90
2019-05-14T13:21:28.959Z,0.70
2019-05-14T13:23:56.289Z,1.00
2019-05-14T13:26:24.179Z,0.97
2019-05-14T13:28:53.019Z,0.97
2019-05-14T13:31:20.725Z,0.90
2019-05-14T13:33:59.500Z,0.80
2019-05-14T13:36:29.740Z,0.93
2019-05-14T13:38:59.562Z,0.80
2019-05-14T13:41:28.478Z,1.30
2019-05-14T13:43:58.803Z,0.80
2019-05-14T13:46:28.478Z,1.00
2019-05-14T13:48:58.801Z,0.80
2019-05-14T13:51:33.025Z,0.97
2019-05-14T13:53:58.934Z,0.70
2019-05-14T13:56:28.394Z,0.77
2019-05-14T13:58:58.914Z,0.90
2019-05-14T14:01:25.895Z,0.73
2019-05-14T14:04:06.599Z,1.00
2019-05-14T14:06:24.211Z,0.73
2019-05-14T14:08:52.155Z,0.93
2019-05-14T14:11:20.096Z,0.97
2019-05-14T14:13:48.967Z,0.90
2019-05-14T14:16:19.477Z,0.80
2019-05-14T14:18:49.759Z,0.60
2019-05-14T14:21:15.955Z,0.87
2019-05-14T14:23:43.604Z,0.90
2019-05-14T14:26:11.621Z,0.80
2019-05-14T14:28:39.878Z,1.07
2019-05-14T14:31:11.032Z,0.73
2019-05-14T14:33:39.278Z,0.70
2019-05-14T14:36:09.440Z,1.30
2019-05-14T14:38:40.232Z,0.80
2019-05-14T14:41:10.056Z,0.80
2019-05-14T14:43:42.351Z,0.70
2019-05-14T14:46:13.695Z,0.80
2019-05-14T14:48:39.324Z,0.90
2019-05-14T14:51:08.349Z,0.87
2019-05-14T14:53:51.319Z,0.73
2019-05-14T14:56:09.056Z,0.80
2019-05-14T14:58:35.300Z,0.83
2019-05-14T15:01:03.026Z,0.57
2019-05-14T15:03:30.701Z,0.90
2019-05-14T15:05:58.908Z,0.80
2019-05-14T15:08:29.189Z,0.83
2019-05-14T15:10:59.137Z,0.70
2019-05-14T15:13:26.077Z,0.63
2019-05-14T15:15:53.961Z,0.83
2019-05-14T15:18:22.017Z,0.83
2019-05-14T15:20:50.218Z,0.90
2019-05-14T15:23:19.327Z,1.10
2019-05-14T15:25:47.290Z,0.93
2019-05-14T15:28:14.924Z,0.83
2019-05-14T15:30:43.770Z,0.67
2019-05-14T15:33:11.454Z,0.90
2019-05-14T15:35:39.160Z,0.70
2019-05-14T15:38:11.112Z,0.80
2019-05-14T15:40:36.358Z,0.70
2019-05-14T15:43:09.648Z,0.80
2019-05-14T15:45:37.889Z,0.70
2019-05-14T15:48:09.000Z,0.80
2019-05-14T15:50:38.900Z,0.70
2019-05-14T15:53:10.820Z,0.47
2019-05-14T15:55:38.341Z,0.90
2019-05-14T15:58:08.546Z,0.70
2019-05-14T16:00:38.316Z,0.90
2019-05-14T16:03:04.971Z,0.70
2019-05-14T16:05:32.738Z,0.83
2019-05-14T16:08:00.410Z,0.70
2019-05-14T16:10:31.102Z,0.63
2019-05-14T16:12:59.549Z,0.70
2019-05-14T16:15:28.518Z,0.90
2019-05-14T16:18:07.429Z,1.10
2019-05-14T16:20:29.564Z,1.00
2019-05-14T16:22:58.989Z,1.13
2019-05-14T16:25:28.538Z,0.70
2019-05-14T16:27:58.778Z,0.50
2019-05-14T16:30:28.778Z,0.87
2019-05-14T16:32:56.152Z,1.13
2019-05-14T16:35:23.931Z,0.80
2019-05-14T16:37:51.651Z,0.87
2019-05-14T16:40:19.451Z,1.00
2019-05-14T16:42:48.491Z,0.90
2019-05-14T16:45:18.642Z,1.07
2019-05-14T16:48:10.797Z,0.80
2019-05-14T16:50:37.623Z,1.00
2019-05-14T16:53:11.702Z,0.77
2019-05-14T16:55:38.398Z,0.87
2019-05-14T16:58:08.811Z,0.80
2019-05-14T17:00:35.649Z,1.13
2019-05-14T17:03:03.579Z,1.00
2019-05-14T17:05:31.317Z,1.00
2019-05-14T17:07:59.315Z,0.87
2019-05-14T17:10:28.682Z,0.70
2019-05-14T17:12:57.592Z,1.20
2019-05-14T17:15:28.608Z,0.97
2019-05-14T17:17:55.749Z,0.77
2019-05-14T17:20:24.428Z,0.70
2019-05-14T17:22:52.164Z,1.00
2019-05-14T17:25:26.953Z,0.90
2019-05-14T17:27:49.205Z,0.80
2019-05-14T17:30:18.278Z,0.73
2019-05-14T17:32:46.161Z,0.90
2019-05-14T17:35:29.832Z,0.77
2019-05-14T17:37:58.730Z,0.80
2019-05-14T18:01:55.104Z,0.90
2019-05-14T18:04:23.032Z,0.83
2019-05-14T18:06:59.358Z,0.87
2019-05-14T18:09:29.272Z,1.10
2019-05-14T18:35:51.133Z,0.80
2019-05-14T18:38:19.488Z,0.60
2019-05-14T18:40:49.415Z,0.73
2019-05-14T18:43:19.140Z,0.70
2019-05-14T18:45:48.135Z,0.70
2019-05-14T18:48:15.794Z,0.90
2019-05-14T19:39:18.760Z,0.70
2019-05-14T19:41:48.435Z,0.83
2019-05-14T19:44:18.910Z,1.03
2019-05-14T19:46:49.413Z,0.70
2019-05-14T19:49:20.105Z,0.63
2019-05-14T19:51:48.345Z,0.70
2019-05-14T20:53:35.769Z,1.60
2019-05-14T20:56:08.301Z,1.30
2019-05-14T20:58:39.014Z,1.30
2019-05-14T21:01:11.440Z,1.23
2019-05-14T21:03:39.134Z,1.40
2019-05-14T21:06:13.816Z,1.23
2019-05-14T21:08:41.797Z,1.43
2019-05-14T21:11:09.927Z,1.33
2019-05-14T21:13:37.789Z,1.20
2019-05-14T21:23:14.114Z,1.30
2019-05-14T21:26:47.204Z,1.20
